Time;durP1;ratioP1;P1;durP2;ratioP2;P2;SDS_P1;SDS_P2;PMS_P1;PMS_P2;Temp;Humidity;BMP_temperature;BMP_pressure;BME280_temperature;BME280_humidity;BME280_pressure;Samples;Min_cycle;Max_cycle;Signal;HPM_P1;HPM_P2
2023/11/20 00:06:03;;;;;;;6;3.6;;;;;;;6.36;88.18;;;;;
2023/11/20 00:16:03;;;;;;;6;3.6;;;;;;;6.44;87.92;;;;;
2023/11/20 00:26:03;;;;;;;6.9;3.2;;;;;;;6.47;87.7;;;;;
2023/11/20 00:37:03;;;;;;;6.9;3.2;;;;;;;6.4;88.19;;;;;
2023/11/20 00:47:03;;;;;;;6.9;3.2;;;;;;;6.52;88.1;;;;;
2023/11/20 00:57:03;;;;;;;3.6;2.3;;;;;;;6.48;88.53;;;;;
2023/11/20 01:07:03;;;;;;;3.6;2.3;;;;;;;6.47;88.7;;;;;
2023/11/20 01:18:03;;;;;;;3.6;2.3;;;;;;;6.5;88.8;;;;;
2023/11/20 01:28:03;;;;;;;4.7;2.2;;;;;;;6.59;88.83;;;;;
2023/11/20 01:39:03;;;;;;;4.7;2.2;;;;;;;6.52;88.69;;;;;
2023/11/20 01:49:04;;;;;;;4.7;2.2;;;;;;;6.64;88.49;;;;;
2023/11/20 01:59:04;;;;;;;5.1;2.5;;;;;;;6.59;88.23;;;;;
2023/11/20 02:09:03;;;;;;;5.1;2.5;;;;;;;6.68;88.1;;;;;
2023/11/20 02:20:03;;;;;;;5.1;2.5;;;;;;;6.85;87.61;;;;;
2023/11/20 02:31:04;;;;;;;4.9;2.1;;;;;;;6.86;87.52;;;;;
2023/11/20 02:42:03;;;;;;;4.9;2.1;;;;;;;6.8;87.84;;;;;
2023/11/20 02:53:03;;;;;;;3.7;1.7;;;;;;;6.85;87.8;;;;;
2023/11/20 03:03:06;;;;;;;3.7;1.7;;;;;;;6.92;87.52;;;;;
2023/11/20 03:13:03;;;;;;;3.7;1.7;;;;;;;6.88;87.39;;;;;
2023/11/20 03:24:03;;;;;;;4.2;2;;;;;;;6.91;87.36;;;;;
2023/11/20 03:34:03;;;;;;;4.2;2;;;;;;;7.03;86.73;;;;;
2023/11/20 03:44:03;;;;;;;4.2;2;;;;;;;7.09;86.44;;;;;
2023/11/20 03:54:03;;;;;;;3.1;1.5;;;;;;;6.85;86.28;;;;;
2023/11/20 04:05:03;;;;;;;3.1;1.5;;;;;;;6.85;86.64;;;;;
2023/11/20 04:15:03;;;;;;;3.1;1.5;;;;;;;6.94;86.22;;;;;
2023/11/20 04:26:03;;;;;;;4.2;1.5;;;;;;;7.09;86.03;;;;;
2023/11/20 04:36:03;;;;;;;4.2;1.5;;;;;;;7.07;86.57;;;;;
2023/11/20 04:47:03;;;;;;;4.2;1.5;;;;;;;7.3;86.56;;;;;
2023/11/20 04:58:03;;;;;;;4;1.9;;;;;;;7.34;86.95;;;;;
2023/11/20 05:09:03;;;;;;;4;1.9;;;;;;;7.35;87.45;;;;;
2023/11/20 05:20:06;;;;;;;4;1.9;;;;;;;7.37;87.71;;;;;
2023/11/20 05:30:04;;;;;;;3;1.5;;;;;;;7.33;88.05;;;;;
2023/11/20 05:41:03;;;;;;;3;1.5;;;;;;;7.34;88.17;;;;;
2023/11/20 05:52:04;;;;;;;3.4;1.5;;;;;;;7.39;88.07;;;;;
2023/11/20 06:03:04;;;;;;;3.4;1.5;;;;;;;7.49;88.13;;;;;
2023/11/20 06:13:03;;;;;;;3.4;1.5;;;;;;;7.49;88.21;;;;;
2023/11/20 06:23:03;;;;;;;3.6;1.7;;;;;;;7.4;88.5;;;;;
2023/11/20 06:34:03;;;;;;;3.6;1.7;;;;;;;7.42;88.81;;;;;
2023/11/20 06:44:04;;;;;;;3.6;1.7;;;;;;;7.45;88.87;;;;;
2023/11/20 06:55:03;;;;;;;4;1.9;;;;;;;7.58;88.49;;;;;
2023/11/20 07:06:03;;;;;;;4;1.9;;;;;;;7.56;88.03;;;;;
2023/11/20 07:17:03;;;;;;;4;1.9;;;;;;;7.76;87.68;;;;;
2023/11/20 07:28:04;;;;;;;4.4;1.8;;;;;;;7.81;87.64;;;;;
2023/11/20 07:39:03;;;;;;;4.4;1.8;;;;;;;7.93;87.45;;;;;
2023/11/20 07:49:03;;;;;;;4.4;1.8;;;;;;;7.92;87.37;;;;;
2023/11/20 07:59:03;;;;;;;5.1;2.2;;;;;;;8.13;87.15;;;;;
2023/11/20 08:10:03;;;;;;;5.1;2.2;;;;;;;8.12;87.11;;;;;
2023/11/20 08:20:06;;;;;;;5.1;2.2;;;;;;;8.37;86.47;;;;;
2023/11/20 08:31:03;;;;;;;4.9;2;;;;;;;8.41;86.43;;;;;
2023/11/20 08:41:03;;;;;;;4.9;2;;;;;;;8.43;86.15;;;;;
2023/11/20 08:52:04;;;;;;;4.9;1.7;;;;;;;8.43;86.46;;;;;
2023/11/20 09:02:03;;;;;;;4.9;1.7;;;;;;;8.65;86.1;;;;;
2023/11/20 09:12:03;;;;;;;4.9;1.7;;;;;;;8.78;86.36;;;;;
2023/11/20 09:23:03;;;;;;;4;1.8;;;;;;;8.88;85.92;;;;;
2023/11/20 09:34:03;;;;;;;4;1.8;;;;;;;8.92;85.5;;;;;
2023/11/20 09:45:04;;;;;;;4;1.8;;;;;;;8.88;86.2;;;;;
2023/11/20 09:56:03;;;;;;;5.4;2.1;;;;;;;9.04;86.15;;;;;
2023/11/20 10:06:03;;;;;;;5.4;2.1;;;;;;;9.2;85.08;;;;;
2023/11/20 10:16:04;;;;;;;5.4;2.1;;;;;;;9.42;86.42;;;;;
2023/11/20 10:27:03;;;;;;;5.7;2.5;;;;;;;9.58;85.13;;;;;
2023/11/20 10:37:04;;;;;;;5.7;2.5;;;;;;;9.72;85.31;;;;;
2023/11/20 10:48:07;;;;;;;5.7;2.5;;;;;;;9.46;85.19;;;;;
2023/11/20 10:59:03;;;;;;;3.6;1.9;;;;;;;9.74;84.84;;;;;
2023/11/20 11:10:07;;;;;;;3.6;1.9;;;;;;;9.72;85.25;;;;;
2023/11/20 11:20:04;;;;;;;3.6;1.9;;;;;;;9.79;85.17;;;;;
2023/11/20 11:31:03;;;;;;;4.8;2.3;;;;;;;9.74;85.58;;;;;
2023/11/20 11:41:04;;;;;;;4.8;2.3;;;;;;;9.76;85.1;;;;;
2023/11/20 11:52:03;;;;;;;4.2;2.1;;;;;;;9.64;85.6;;;;;
2023/11/20 12:02:03;;;;;;;4.2;2.1;;;;;;;9.71;86.2;;;;;
2023/11/20 12:12:03;;;;;;;4.2;2.1;;;;;;;9.66;86.38;;;;;
2023/11/20 12:23:06;;;;;;;5.1;2.1;;;;;;;9.6;85.67;;;;;
2023/11/20 12:34:03;;;;;;;5.1;2.1;;;;;;;9.63;85.86;;;;;
2023/11/20 12:45:05;;;;;;;5.1;2.1;;;;;;;9.7;85.71;;;;;
2023/11/20 12:55:04;;;;;;;5.1;2.5;;;;;;;9.52;86.24;;;;;
2023/11/20 13:06:04;;;;;;;5.1;2.5;;;;;;;9.93;85.49;;;;;
2023/11/20 13:17:04;;;;;;;5.1;2.5;;;;;;;9.77;86.39;;;;;
2023/11/20 13:27:04;;;;;;;5.7;2.6;;;;;;;9.86;86.02;;;;;
2023/11/20 13:37:03;;;;;;;;;;;;;;;;;;;;;
2023/11/20 13:48:03;;;;;;;;;;;;;;;;;;;;;
2023/11/20 13:58:04;;;;;;;;;;;;;;;;;;;;;
2023/11/20 14:08:04;;;;;;;;;;;;;;;;;;;;;
2023/11/20 14:18:04;;;;;;;;;;;;;;;;;;;;;
2023/11/20 14:29:03;;;;;;;;;;;;;;;;;;;;;
2023/11/20 14:39:03;;;;;;;;;;;;;;;;;;;;;
2023/11/20 14:50:03;;;;;;;;;;;;;;;;;;;;;
2023/11/20 15:01:04;;;;;;;;;;;;;;;;;;;;;
2023/11/20 15:11:06;;;;;;;;;;;;;;;;;;;;;
2023/11/20 15:21:03;;;;;;;;;;;;;;;8.8;89.41;;;;;
2023/11/20 15:32:03;;;;;;;5.9;2.2;;;;;;;8.9;89.08;;;;;
2023/11/20 15:42:03;;;;;;;5.9;2.2;;;;;;;8.76;89.42;;;;;
2023/11/20 15:53:04;;;;;;;8;4.1;;;;;;;8.87;88.98;;;;;
2023/11/20 16:03:03;;;;;;;8;4.1;;;;;;;8.82;89.28;;;;;
2023/11/20 16:13:03;;;;;;;8;4.1;;;;;;;8.76;89.49;;;;;
2023/11/20 16:24:03;;;;;;;14;5.6;;;;;;;8.79;89.81;;;;;
2023/11/20 16:34:04;;;;;;;14;5.6;;;;;;;8.85;89.79;;;;;
2023/11/20 16:45:04;;;;;;;14;5.6;;;;;;;8.96;89.63;;;;;
2023/11/20 16:56:03;;;;;;;9.2;5.6;;;;;;;8.9;89.65;;;;;
2023/11/20 17:06:06;;;;;;;;;;;;;;;;;;;;;
2023/11/20 17:17:05;;;;;;;;;;;;;;;9;89.39;;;;;
2023/11/20 17:27:04;;;;;;;9.8;5.7;;;;;;;9.1;89.28;;;;;
2023/11/20 17:37:04;;;;;;;9.8;5.7;;;;;;;9.18;89.31;;;;;
2023/11/20 17:48:06;;;;;;;9.8;5.7;;;;;;;9.31;89.08;;;;;
2023/11/20 17:58:04;;;;;;;12.8;7.3;;;;;;;9.36;88.92;;;;;
2023/11/20 18:09:06;;;;;;;12.8;7.3;;;;;;;9.41;88.97;;;;;
2023/11/20 18:20:03;;;;;;;12.8;7.3;;;;;;;9.44;89.38;;;;;
2023/11/20 18:31:03;;;;;;;12.4;7.7;;;;;;;9.35;89.9;;;;;
2023/11/20 18:41:04;;;;;;;12.4;7.7;;;;;;;9.53;89.36;;;;;
2023/11/20 18:51:03;;;;;;;12.4;7.7;;;;;;;9.55;89.34;;;;;
2023/11/20 19:02:04;;;;;;;10.4;5.6;;;;;;;9.54;89.29;;;;;
2023/11/20 19:12:04;;;;;;;10.4;5.6;;;;;;;9.45;89.68;;;;;
2023/11/20 19:23:04;;;;;;;9;4;;;;;;;9.5;89.66;;;;;
2023/11/20 19:34:03;;;;;;;9;4;;;;;;;9.46;89.9;;;;;
2023/11/20 19:45:03;;;;;;;9;4;;;;;;;9.39;90.16;;;;;
2023/11/20 19:55:04;;;;;;;9.2;5;;;;;;;9.42;90.17;;;;;
2023/11/20 20:06:04;;;;;;;9.2;5;;;;;;;9.45;90.06;;;;;
2023/11/20 20:17:09;;;;;;;9.2;5;;;;;;;9.44;90.08;;;;;
2023/11/20 20:27:04;;;;;;;9.4;5;;;;;;;9.55;90.07;;;;;
2023/11/20 20:37:04;;;;;;;9.4;5;;;;;;;9.51;90.09;;;;;
2023/11/20 20:48:04;;;;;;;9.4;5;;;;;;;9.55;89.84;;;;;
2023/11/20 20:59:05;;;;;;;10.4;5.4;;;;;;;9.41;90.34;;;;;
2023/11/20 21:09:05;;;;;;;10.4;5.4;;;;;;;9.39;90.46;;;;;
2023/11/20 21:20:04;;;;;;;10.4;5.4;;;;;;;9.4;90.31;;;;;
2023/11/20 21:31:04;;;;;;;8.6;5;;;;;;;9.38;90.43;;;;;
2023/11/20 21:41:04;;;;;;;8.6;5;;;;;;;9.37;90.02;;;;;
2023/11/20 21:52:04;;;;;;;8.6;4.5;;;;;;;9.3;89.7;;;;;
2023/11/20 22:02:05;;;;;;;8.6;4.5;;;;;;;9.28;89.86;;;;;
2023/11/20 22:12:04;;;;;;;8.6;4.5;;;;;;;9.19;89.94;;;;;
2023/11/20 22:22:04;;;;;;;8.2;4.6;;;;;;;9.25;89.57;;;;;
2023/11/20 22:33:04;;;;;;;8.2;4.6;;;;;;;9.13;89.42;;;;;
2023/11/20 22:44:04;;;;;;;8.2;4.6;;;;;;;9.03;89.25;;;;;
2023/11/20 22:54:04;;;;;;;5.5;3.2;;;;;;;9.06;88.84;;;;;
2023/11/20 23:05:04;;;;;;;5.5;3.2;;;;;;;8.92;89.11;;;;;
2023/11/20 23:16:04;;;;;;;5.5;3.2;;;;;;;8.96;88.83;;;;;
2023/11/20 23:26:04;;;;;;;6.7;4;;;;;;;8.85;89.07;;;;;
2023/11/20 23:37:04;;;;;;;6.7;4;;;;;;;8.8;89.2;;;;;
2023/11/20 23:47:06;;;;;;;6.7;4;;;;;;;8.66;89.9;;;;;
2023/11/20 23:57:04;;;;;;;5.4;2.9;;;;;;;8.56;90.23;;;;;
